createdAt,value
2022-12-09T00:01:23.196Z,66.27
2022-12-09T00:03:50.927Z,67.27
2022-12-09T00:06:29.065Z,66.03
2022-12-09T00:08:57.359Z,67.43
2022-12-09T00:11:25.267Z,64.63
2022-12-09T00:13:57.044Z,68.93
2022-12-09T00:16:24.763Z,64.23
2022-12-09T00:18:52.427Z,66.63
2022-12-09T00:21:30.578Z,67.53
2022-12-09T00:23:58.762Z,65.27
2022-12-09T00:26:27.217Z,59.03
2022-12-09T00:28:55.596Z,69.37
2022-12-09T00:31:24.946Z,68.43
2022-12-09T00:33:54.323Z,66.47
2022-12-09T00:36:23.204Z,65.37
2022-12-09T00:38:50.191Z,64.83
2022-12-09T00:41:17.568Z,67.20
2022-12-09T00:43:44.764Z,69.33
2022-12-09T00:46:12.778Z,65.33
2022-12-09T00:48:40.218Z,70.80
2022-12-09T00:51:09.291Z,70.73
2022-12-09T00:53:36.306Z,64.60
2022-12-09T00:56:03.179Z,76.70
2022-12-09T00:58:30.195Z,69.10
2022-12-09T01:00:57.320Z,70.33
2022-12-09T01:03:24.600Z,69.87
2022-12-09T01:05:51.726Z,71.70
2022-12-09T01:08:19.303Z,68.57
2022-12-09T01:10:46.831Z,72.43
2022-12-09T01:13:15.026Z,65.70
2022-12-09T01:15:42.262Z,79.13
2022-12-09T01:18:11.259Z,71.00
2022-12-09T01:20:38.380Z,73.13
2022-12-09T01:23:05.281Z,73.43
2022-12-09T01:25:32.370Z,68.43
2022-12-09T01:27:59.147Z,72.67
2022-12-09T01:30:25.945Z,75.03
2022-12-09T01:32:53.198Z,74.03
2022-12-09T01:35:20.040Z,75.07
2022-12-09T01:37:46.830Z,74.53
2022-12-09T01:40:17.156Z,75.07
2022-12-09T01:42:44.972Z,68.50
2022-12-09T01:45:21.493Z,72.63
2022-12-09T01:47:51.245Z,71.30
2022-12-09T01:50:18.880Z,70.53
2022-12-09T01:52:47.551Z,75.63
2022-12-09T01:55:14.670Z,71.47
2022-12-09T01:57:42.959Z,75.83
2022-12-09T02:00:11.284Z,72.90
2022-12-09T02:02:40.035Z,65.50
2022-12-09T02:05:07.483Z,68.07
2022-12-09T02:07:34.446Z,70.97
2022-12-09T02:10:04.120Z,68.10
2022-12-09T02:12:41.261Z,65.00
2022-12-09T02:15:18.071Z,69.07
2022-12-09T02:17:51.924Z,65.13
2022-12-09T02:20:21.591Z,67.00
2022-12-09T02:23:13.419Z,67.60
2022-12-09T02:25:57.103Z,59.70
2022-12-09T02:29:00.436Z,68.20
2022-12-09T02:31:46.886Z,58.13
2022-12-09T02:34:26.440Z,55.87
2022-12-09T02:36:57.318Z,56.80
2022-12-09T02:39:39.580Z,59.80
2022-12-09T02:42:09.921Z,65.60
2022-12-09T02:44:39.466Z,65.57
2022-12-09T02:47:09.747Z,79.37
2022-12-09T02:49:37.348Z,69.27
2022-12-09T02:52:05.669Z,60.70
2022-12-09T02:54:34.386Z,63.80
2022-12-09T02:57:30.783Z,68.90
2022-12-09T02:59:57.948Z,73.57
2022-12-09T03:02:38.721Z,80.43
2022-12-09T03:05:34.229Z,78.03
2022-12-09T03:08:10.416Z,80.60
2022-12-09T03:10:56.658Z,85.50
2022-12-09T03:14:03.422Z,85.97
2022-12-09T03:16:37.762Z,85.33
2022-12-09T03:19:29.060Z,84.77
2022-12-09T03:22:04.000Z,78.13
2022-12-09T03:24:49.761Z,83.33
2022-12-09T03:27:23.582Z,73.50
2022-12-09T03:29:52.170Z,77.70
2022-12-09T03:32:23.994Z,81.53
2022-12-09T03:34:59.888Z,75.50
2022-12-09T03:37:27.623Z,77.63
2022-12-09T03:39:56.089Z,67.83
2022-12-09T03:42:31.166Z,68.53
2022-12-09T03:45:02.984Z,72.07
2022-12-09T03:47:30.265Z,69.87
2022-12-09T03:49:58.232Z,65.67
2022-12-09T03:52:47.317Z,66.70
2022-12-09T03:55:16.822Z,69.73
2022-12-09T03:57:45.830Z,70.27
2022-12-09T04:00:13.452Z,71.00
2022-12-09T04:02:40.915Z,74.13
2022-12-09T04:05:08.951Z,66.30
2022-12-09T04:07:36.479Z,66.27
2022-12-09T04:10:04.782Z,63.43
2022-12-09T04:12:32.058Z,65.33
2022-12-09T04:14:58.742Z,65.50
2022-12-09T04:17:25.651Z,59.93
2022-12-09T04:19:52.479Z,56.87
2022-12-09T04:22:19.915Z,57.97
2022-12-09T04:24:46.601Z,56.57
2022-12-09T04:27:13.396Z,54.63
2022-12-09T04:29:40.104Z,63.10
2022-12-09T04:32:07.147Z,63.43
2022-12-09T04:34:34.199Z,61.03
2022-12-09T04:37:01.073Z,56.03
2022-12-09T04:39:28.261Z,60.83
2022-12-09T04:41:55.179Z,59.37
2022-12-09T04:44:22.022Z,56.07
2022-12-09T04:46:49.151Z,56.67
2022-12-09T04:49:16.195Z,65.67
2022-12-09T04:51:42.947Z,53.77
2022-12-09T04:54:13.895Z,61.70
2022-12-09T04:56:41.773Z,62.03
2022-12-09T04:59:08.694Z,59.07
2022-12-09T05:01:35.887Z,59.20
2022-12-09T05:04:03.428Z,67.07
2022-12-09T05:06:30.506Z,62.50
2022-12-09T05:08:57.502Z,62.03
2022-12-09T05:11:25.039Z,53.70
2022-12-09T05:13:53.823Z,58.93
2022-12-09T05:16:21.491Z,53.60
2022-12-09T05:18:49.761Z,53.87
2022-12-09T05:21:20.082Z,62.37
2022-12-09T05:23:47.842Z,58.90
2022-12-09T05:26:17.804Z,59.90
2022-12-09T05:28:45.067Z,58.80
2022-12-09T05:31:15.501Z,60.17
2022-12-09T05:33:43.448Z,57.77
2022-12-09T05:36:12.418Z,63.93
2022-12-09T05:38:40.428Z,61.03
2022-12-09T05:41:07.930Z,74.50
2022-12-09T05:43:35.677Z,68.47
2022-12-09T05:46:03.068Z,67.37
2022-12-09T05:48:31.020Z,124.87
2022-12-09T05:51:06.641Z,127.83
2022-12-09T05:53:33.998Z,158.30
2022-12-09T05:56:01.135Z,206.20
2022-12-09T05:58:28.300Z,182.90
2022-12-09T06:00:56.727Z,74.97
2022-12-09T06:03:24.656Z,69.67
2022-12-09T06:05:52.357Z,67.17
2022-12-09T06:08:19.714Z,65.73
2022-12-09T06:10:47.218Z,61.60
2022-12-09T06:13:14.715Z,58.40
2022-12-09T06:15:41.859Z,61.57
2022-12-09T06:18:09.187Z,64.37
2022-12-09T06:20:40.642Z,63.87
2022-12-09T06:23:07.875Z,65.93
2022-12-09T06:25:35.169Z,74.00
2022-12-09T06:28:02.143Z,70.00
2022-12-09T06:30:29.156Z,67.87
2022-12-09T06:32:56.320Z,67.83
2022-12-09T06:35:23.557Z,61.47
2022-12-09T06:37:53.540Z,63.53
2022-12-09T06:40:24.183Z,79.03
2022-12-09T06:42:51.942Z,344.20
2022-12-09T06:45:19.942Z,219.97
2022-12-09T06:47:47.718Z,212.37
2022-12-09T06:50:14.817Z,71.63
2022-12-09T06:52:42.143Z,73.47
2022-12-09T06:55:10.374Z,64.10
2022-12-09T06:57:37.763Z,84.07
2022-12-09T07:00:05.593Z,80.93
2022-12-09T07:02:36.651Z,65.43
2022-12-09T07:05:04.561Z,68.27
2022-12-09T07:07:31.898Z,69.27
2022-12-09T07:09:59.025Z,77.23
2022-12-09T07:12:26.587Z,104.90
2022-12-09T07:14:53.503Z,81.17
2022-12-09T07:17:20.898Z,111.93
2022-12-09T07:19:48.435Z,90.70
2022-12-09T07:22:16.098Z,123.43
2022-12-09T07:24:44.541Z,190.80
2022-12-09T07:27:19.323Z,289.43
2022-12-09T07:29:47.289Z,188.17
2022-12-09T07:32:14.788Z,292.63
2022-12-09T07:34:42.566Z,409.13
2022-12-09T07:37:09.993Z,152.50
2022-12-09T07:39:36.814Z,256.03
2022-12-09T07:42:03.969Z,247.20
2022-12-09T07:44:31.093Z,129.97
2022-12-09T07:46:58.547Z,161.43
2022-12-09T07:49:25.868Z,86.73
2022-12-09T07:51:52.833Z,66.50
2022-12-09T07:54:20.677Z,77.93
2022-12-09T07:56:48.116Z,67.33
2022-12-09T07:59:15.526Z,66.33
2022-12-09T08:01:43.314Z,66.30
2022-12-09T08:04:10.780Z,57.93
2022-12-09T08:06:38.376Z,55.80
2022-12-09T08:09:08.678Z,53.93
2022-12-09T08:11:36.120Z,54.13
2022-12-09T08:14:10.833Z,61.37
2022-12-09T08:16:39.684Z,53.00
2022-12-09T08:19:07.153Z,58.27
2022-12-09T08:21:34.436Z,54.63
2022-12-09T08:24:03.597Z,57.70
2022-12-09T08:26:32.438Z,57.97
2022-12-09T08:28:59.919Z,59.90
2022-12-09T08:31:27.764Z,71.33
2022-12-09T08:33:55.691Z,67.30
2022-12-09T08:36:25.582Z,63.87
2022-12-09T08:38:52.999Z,70.93
2022-12-09T08:41:38.427Z,66.17
2022-12-09T08:44:07.932Z,64.17
2022-12-09T08:46:37.281Z,70.43
2022-12-09T08:49:05.842Z,71.23
2022-12-09T08:51:34.080Z,70.20
2022-12-09T08:54:01.606Z,72.70
2022-12-09T08:56:29.205Z,73.23
2022-12-09T08:58:56.630Z,71.17
2022-12-09T09:01:26.897Z,70.53
2022-12-09T09:03:54.017Z,73.57
2022-12-09T09:06:21.475Z,68.33
2022-12-09T09:08:48.961Z,75.63
2022-12-09T09:11:19.140Z,73.33
2022-12-09T09:13:48.969Z,76.17
2022-12-09T09:16:18.748Z,69.73
2022-12-09T09:18:46.542Z,74.50
2022-12-09T09:21:16.100Z,77.97
2022-12-09T09:23:43.838Z,69.83
2022-12-09T09:26:16.588Z,94.13
2022-12-09T09:28:43.903Z,106.83
2022-12-09T09:31:13.470Z,124.13
2022-12-09T09:33:41.129Z,126.13
2022-12-09T09:36:11.641Z,122.73
2022-12-09T09:38:39.413Z,138.00
2022-12-09T09:41:34.022Z,126.93
2022-12-09T09:44:02.044Z,133.17
2022-12-09T09:46:40.785Z,122.73
2022-12-09T09:49:14.605Z,139.77
2022-12-09T09:51:42.030Z,116.20
2022-12-09T09:54:13.367Z,125.33
2022-12-09T09:57:02.158Z,124.70
2022-12-09T10:00:04.979Z,121.87
2022-12-09T10:02:58.232Z,123.93
2022-12-09T10:05:28.417Z,124.80
2022-12-09T10:08:38.918Z,120.57
2022-12-09T10:11:12.869Z,122.90
2022-12-09T10:13:52.677Z,121.80
2022-12-09T10:16:56.584Z,121.23
2022-12-09T10:19:40.196Z,120.10
2022-12-09T10:22:15.674Z,112.27
2022-12-09T10:24:52.545Z,112.07
2022-12-09T10:27:41.244Z,124.40
2022-12-09T10:30:17.310Z,111.57
2022-12-09T10:32:44.954Z,117.87
2022-12-09T10:35:27.093Z,108.10
2022-12-09T10:37:57.111Z,109.40
2022-12-09T10:40:55.777Z,120.13
2022-12-09T10:43:37.583Z,107.20
2022-12-09T10:46:26.619Z,111.80
2022-12-09T10:48:58.809Z,110.03
2022-12-09T10:51:32.032Z,112.43
2022-12-09T10:54:06.439Z,112.17
2022-12-09T10:56:35.813Z,107.70
2022-12-09T10:59:19.745Z,114.57
2022-12-09T11:01:54.966Z,91.37
2022-12-09T11:04:24.028Z,86.73
2022-12-09T11:06:58.773Z,90.50
2022-12-09T11:09:33.375Z,85.87
2022-12-09T11:12:01.359Z,65.37
2022-12-09T11:14:49.819Z,68.03
2022-12-09T11:17:21.171Z,63.80
2022-12-09T11:19:52.629Z,59.73
2022-12-09T11:22:39.621Z,50.60
2022-12-09T11:25:15.750Z,50.90
2022-12-09T11:27:48.225Z,48.63
2022-12-09T11:30:40.649Z,46.77
2022-12-09T11:33:14.307Z,44.07
2022-12-09T11:35:44.315Z,41.47
2022-12-09T11:38:36.299Z,39.40
2022-12-09T11:41:41.854Z,45.03
2022-12-09T11:44:23.076Z,41.87
2022-12-09T11:47:01.496Z,40.30
2022-12-09T11:49:31.135Z,39.17
2022-12-09T11:52:21.519Z,43.97
2022-12-09T11:55:07.278Z,40.70
2022-12-09T11:57:52.526Z,40.93
2022-12-09T12:00:21.366Z,38.00
2022-12-09T12:03:03.385Z,42.70
2022-12-09T12:05:36.883Z,40.57
2022-12-09T12:08:16.484Z,39.87
2022-12-09T12:10:55.392Z,42.03
2022-12-09T12:13:46.276Z,44.97
2022-12-09T12:16:27.411Z,37.00
2022-12-09T12:19:05.688Z,41.30
2022-12-09T12:21:47.828Z,35.23
2022-12-09T12:24:23.728Z,39.83
2022-12-09T12:27:08.421Z,33.93
2022-12-09T12:29:48.827Z,38.37
2022-12-09T12:32:34.230Z,34.43
2022-12-09T12:35:45.449Z,34.80
2022-12-09T12:38:33.047Z,33.87
2022-12-09T12:41:34.313Z,36.60
2022-12-09T12:44:48.878Z,34.93
2022-12-09T12:47:20.999Z,38.77
2022-12-09T12:49:56.081Z,35.90
2022-12-09T12:55:47.452Z,35.50
2022-12-09T12:58:30.346Z,34.17
2022-12-09T13:01:22.438Z,31.50
2022-12-09T13:04:13.105Z,31.13
2022-12-09T13:06:48.269Z,30.90
2022-12-09T13:09:40.358Z,29.43
2022-12-09T13:12:42.715Z,33.60
2022-12-09T13:15:16.346Z,29.50
2022-12-09T13:17:46.176Z,31.03
2022-12-09T13:20:27.408Z,32.07
2022-12-09T13:23:05.082Z,31.03
2022-12-09T13:25:59.056Z,31.53
2022-12-09T13:28:43.367Z,29.43
2022-12-09T13:31:10.765Z,31.13
2022-12-09T13:33:47.639Z,34.97
2022-12-09T13:36:42.229Z,29.13
2022-12-09T13:39:30.023Z,34.27
2022-12-09T13:42:15.843Z,28.43
2022-12-09T13:44:42.754Z,31.40
2022-12-09T13:47:34.490Z,33.20
2022-12-09T13:50:05.494Z,30.63
2022-12-09T13:52:46.682Z,27.97
2022-12-09T13:55:48.983Z,30.77
2022-12-09T13:58:27.696Z,30.13
2022-12-09T14:01:04.874Z,31.37
2022-12-09T14:03:39.837Z,31.20
2022-12-09T14:06:21.684Z,31.20
2022-12-09T14:08:52.120Z,37.97
2022-12-09T14:11:37.089Z,32.30
2022-12-09T14:14:25.467Z,34.50
2022-12-09T14:16:56.104Z,30.20
2022-12-09T14:19:25.780Z,27.67
2022-12-09T14:22:19.828Z,33.60
2022-12-09T14:24:53.073Z,32.33
2022-12-09T14:27:27.425Z,27.53
2022-12-09T14:30:31.731Z,33.43
2022-12-09T14:32:58.469Z,27.83
2022-12-09T14:35:42.102Z,26.83
2022-12-09T14:38:30.562Z,28.50
2022-12-09T14:41:12.378Z,31.20
2022-12-09T14:43:51.138Z,32.20
2022-12-09T14:46:25.439Z,31.73
2022-12-09T14:49:20.361Z,28.03
2022-12-09T14:51:54.315Z,31.27
2022-12-09T14:54:36.768Z,30.73
2022-12-09T14:57:07.199Z,30.67
2022-12-09T14:59:34.554Z,30.90
2022-12-09T15:02:22.975Z,31.87
2022-12-09T15:04:51.455Z,30.77
2022-12-09T15:07:25.039Z,28.37
2022-12-09T15:09:59.986Z,28.63
2022-12-09T15:12:36.409Z,37.00
2022-12-09T15:15:18.225Z,31.33
2022-12-09T15:17:55.491Z,32.47
2022-12-09T15:20:29.459Z,29.00
2022-12-09T15:23:02.940Z,30.40
2022-12-09T15:25:29.833Z,32.93
2022-12-09T15:27:58.658Z,34.03
2022-12-09T15:30:31.167Z,29.47
2022-12-09T15:32:57.946Z,29.87
2022-12-09T15:35:27.524Z,29.67
2022-12-09T15:37:57.441Z,27.13
2022-12-09T15:40:29.115Z,28.90
2022-12-09T15:43:00.692Z,30.57
2022-12-09T15:45:31.764Z,30.73
2022-12-09T15:48:03.551Z,34.67
2022-12-09T15:50:32.682Z,28.50
2022-12-09T15:53:03.701Z,30.87
2022-12-09T15:55:52.610Z,30.50
2022-12-09T15:58:23.304Z,34.70
2022-12-09T16:00:51.322Z,37.47
2022-12-09T16:03:34.937Z,35.20
2022-12-09T16:06:06.158Z,34.30
2022-12-09T16:08:36.159Z,36.20
2022-12-09T16:11:03.068Z,33.23
2022-12-09T16:13:29.950Z,32.37
2022-12-09T16:15:58.919Z,35.37
2022-12-09T16:18:34.866Z,38.03
2022-12-09T16:21:16.290Z,41.30
2022-12-09T16:23:48.984Z,34.73
2022-12-09T16:26:32.154Z,41.07
2022-12-09T16:29:02.157Z,42.40
2022-12-09T16:31:29.586Z,37.10
2022-12-09T16:33:57.178Z,39.37
2022-12-09T16:36:29.491Z,38.17
2022-12-09T16:39:08.096Z,38.67
2022-12-09T16:41:52.848Z,39.23
2022-12-09T16:44:38.603Z,37.93
2022-12-09T16:47:16.109Z,36.30
2022-12-09T16:49:46.312Z,42.57
2022-12-09T16:52:16.012Z,38.87
2022-12-09T16:54:44.984Z,38.90
2022-12-09T16:57:14.060Z,38.67
2022-12-09T16:59:41.439Z,38.83
2022-12-09T17:02:31.999Z,40.53
2022-12-09T17:05:00.468Z,42.70
2022-12-09T17:07:27.200Z,46.73
2022-12-09T17:09:53.918Z,44.33
2022-12-09T17:12:20.783Z,43.67
2022-12-09T17:14:47.540Z,44.87
2022-12-09T17:17:14.319Z,50.60
2022-12-09T17:19:42.103Z,43.87
2022-12-09T17:22:09.416Z,51.33
2022-12-09T17:24:36.660Z,46.10
2022-12-09T17:27:03.626Z,49.47
2022-12-09T17:29:30.335Z,46.03
2022-12-09T17:31:57.098Z,57.37
2022-12-09T17:34:23.834Z,56.70
2022-12-09T17:36:50.536Z,62.33
2022-12-09T17:39:17.414Z,68.27
2022-12-09T17:41:44.116Z,76.73
2022-12-09T17:44:10.931Z,75.37
2022-12-09T17:46:37.616Z,70.20
2022-12-09T17:49:04.393Z,79.23
2022-12-09T17:51:35.925Z,89.63
2022-12-09T17:54:03.661Z,118.47
2022-12-09T17:56:30.375Z,131.77
2022-12-09T17:59:03.700Z,131.17
2022-12-09T18:01:31.449Z,112.63
2022-12-09T18:04:04.629Z,109.27
2022-12-09T18:06:36.217Z,92.13
2022-12-09T18:09:05.188Z,94.17
2022-12-09T18:11:32.153Z,95.23
2022-12-09T18:13:59.296Z,87.33
2022-12-09T18:16:26.190Z,85.63
2022-12-09T18:18:53.323Z,93.70
2022-12-09T18:21:20.090Z,80.43
2022-12-09T18:23:48.311Z,84.43
2022-12-09T18:26:18.401Z,93.40
2022-12-09T18:28:45.280Z,97.57
2022-12-09T18:31:19.097Z,99.53
2022-12-09T18:33:46.450Z,98.43
2022-12-09T18:36:18.593Z,105.93
2022-12-09T18:38:45.900Z,88.23
2022-12-09T18:41:18.957Z,99.47
2022-12-09T18:43:47.928Z,97.90
2022-12-09T18:46:25.201Z,105.33
2022-12-09T18:48:57.447Z,107.97
2022-12-09T18:51:24.159Z,112.10
2022-12-09T18:53:51.163Z,116.20
2022-12-09T18:56:18.183Z,109.70
2022-12-09T19:01:33.866Z,100.17
2022-12-09T19:04:02.785Z,113.93
2022-12-09T19:06:33.311Z,105.37
2022-12-09T19:09:07.686Z,112.23
2022-12-09T19:11:38.069Z,98.43
2022-12-09T19:14:06.586Z,92.80
2022-12-09T19:16:33.793Z,98.43
2022-12-09T19:19:07.169Z,102.90
2022-12-09T19:21:36.223Z,103.50
2022-12-09T19:24:02.996Z,110.77
2022-12-09T19:26:32.015Z,105.47
2022-12-09T19:29:01.694Z,98.93
2022-12-09T19:31:30.821Z,107.93
2022-12-09T19:34:03.703Z,147.47
2022-12-09T19:36:31.364Z,125.97
2022-12-09T19:38:58.563Z,119.00
2022-12-09T19:41:25.655Z,107.80
2022-12-09T19:43:56.703Z,130.10
2022-12-09T19:46:24.086Z,130.83
2022-12-09T19:48:50.806Z,126.83
2022-12-09T19:51:18.639Z,128.80
2022-12-09T19:53:46.400Z,138.23
2022-12-09T19:56:18.871Z,111.90
2022-12-09T19:58:46.825Z,122.83
2022-12-09T20:01:25.345Z,140.33
2022-12-09T20:04:46.833Z,134.00
2022-12-09T20:07:07.624Z,131.13
2022-12-09T20:09:35.416Z,112.63
2022-12-09T20:12:02.149Z,121.47
2022-12-09T20:14:28.823Z,113.53
2022-12-09T20:16:55.734Z,115.70
2022-12-09T20:19:22.511Z,125.80
2022-12-09T20:21:49.352Z,110.70
2022-12-09T20:24:16.103Z,115.70
2022-12-09T20:26:43.936Z,116.50
2022-12-09T20:29:11.352Z,121.37
2022-12-09T20:31:39.588Z,121.47
2022-12-09T20:34:10.590Z,121.57
2022-12-09T20:36:39.603Z,123.17
2022-12-09T20:39:12.505Z,119.60
2022-12-09T20:41:40.090Z,118.93
2022-12-09T20:44:06.867Z,136.70
2022-12-09T20:46:33.880Z,123.27
2022-12-09T20:49:01.218Z,134.30
2022-12-09T20:51:31.765Z,128.47
2022-12-09T20:53:59.341Z,137.37
2022-12-09T20:56:27.374Z,130.43
2022-12-09T20:58:55.379Z,122.57
2022-12-09T21:01:25.498Z,123.40
2022-12-09T21:03:53.532Z,120.73
2022-12-09T21:06:22.926Z,139.68
2022-12-09T21:08:51.535Z,128.97
2022-12-09T21:11:23.394Z,125.23
2022-12-09T21:13:52.806Z,126.93
2022-12-09T21:16:22.051Z,112.97
2022-12-09T21:18:50.795Z,126.10
2022-12-09T21:21:18.942Z,115.00
2022-12-09T21:23:46.095Z,137.53
2022-12-09T21:26:18.618Z,145.30
2022-12-09T21:28:46.812Z,122.13
2022-12-09T21:31:16.702Z,120.63
2022-12-09T21:33:44.936Z,115.00
2022-12-09T21:36:20.761Z,116.33
2022-12-09T21:38:47.799Z,124.17
2022-12-09T21:41:17.315Z,112.97
2022-12-09T21:43:45.226Z,114.40
2022-12-09T21:46:15.671Z,128.60
2022-12-09T21:48:42.466Z,113.53
2022-12-09T21:51:11.529Z,108.33
2022-12-09T21:53:38.360Z,119.70
2022-12-09T21:56:26.479Z,114.17
2022-12-09T21:58:56.019Z,111.57
2022-12-09T22:01:28.748Z,124.40
2022-12-09T22:03:56.980Z,138.33
2022-12-09T22:06:23.984Z,132.93
2022-12-09T22:08:51.093Z,126.73
2022-12-09T22:11:22.232Z,139.77
2022-12-09T22:13:51.095Z,125.80
2022-12-09T22:16:21.688Z,135.13
2022-12-09T22:18:49.344Z,129.63
2022-12-09T22:21:25.742Z,135.00
2022-12-09T22:23:54.589Z,134.90
2022-12-09T22:26:22.061Z,125.23
2022-12-09T22:28:49.736Z,124.67
2022-12-09T22:31:20.567Z,132.57
2022-12-09T22:33:48.298Z,131.83
2022-12-09T22:36:15.123Z,133.80
2022-12-09T22:38:42.727Z,135.30
2022-12-09T22:41:14.757Z,135.40
2022-12-09T22:43:42.150Z,127.63
2022-12-09T22:46:15.036Z,127.17
2022-12-09T22:48:42.906Z,135.20
2022-12-09T22:51:10.968Z,139.43
2022-12-09T22:53:38.014Z,131.73
2022-12-09T22:56:05.277Z,127.40
2022-12-09T22:58:33.333Z,127.83
2022-12-09T23:01:00.269Z,141.20
2022-12-09T23:03:27.210Z,130.47
2022-12-09T23:05:54.442Z,140.50
2022-12-09T23:08:22.438Z,134.53
2022-12-09T23:10:49.211Z,143.37
2022-12-09T23:13:15.895Z,134.97
2022-12-09T23:15:42.588Z,133.53
2022-12-09T23:18:09.321Z,140.20
2022-12-09T23:20:36.025Z,139.53
2022-12-09T23:23:02.745Z,151.60
2022-12-09T23:25:29.605Z,143.63
2022-12-09T23:27:56.263Z,144.77
2022-12-09T23:30:22.977Z,136.67
2022-12-09T23:32:49.745Z,135.40
2022-12-09T23:35:16.567Z,138.77
2022-12-09T23:37:43.281Z,118.77
2022-12-09T23:40:11.177Z,128.17
2022-12-09T23:42:37.909Z,113.83
2022-12-09T23:45:05.516Z,114.03
2022-12-09T23:47:32.341Z,129.07
2022-12-09T23:49:59.006Z,135.10
2022-12-09T23:52:25.747Z,128.47
2022-12-09T23:54:52.469Z,128.53
2022-12-09T23:57:19.129Z,128.73
2022-12-09T23:59:45.831Z,126.00
